Terminal Aerodrome Forecast
Issued by NWS

Home | Current Version | Previous Version | Text Only | Print | Product List | Glossary On
Versions: 1 2 3 4 5 6 7 8 9 10 11 12 13 14 15 16 17
000
FTUS43 KMQT 071720
TAFSAW
TAF
KSAW 071720Z 0718/0818 01015G23KT P6SM BKN030
     FM072000 02014G22KT P6SM SKC
     FM072300 36007KT P6SM SKC
     FM080200 VRB03KT P6SM SKC=

USA.gov is the U.S. government's official web portal to all federal, state and local government web resources and services.